Bingham Canyon, Utah
Current Conditions -  °F | °C
As of 8:53 AM on Tuesday 21 Oct 2014 (Local Time) from KSLC Reporting Station
Scattered Clouds Scattered Clouds  
Wind Chill: 65°   Ceiling: Unl
Heat Index: 65°   Visibility: 10mi
Dew Point: 39°   Wind: 15mph
Humidity: 39%   Direction: 170°S
Pressure: 29.89"   Gusts: 25mph
Location:  40.57°N, 112.1°W
Report Text: KSLC 211453Z 17013G22KT 10SM FEW075TCU SCT110 SCT200 18/04 A2989 RMK AO2 SLP083 VIRGA N CB DSNT SE TCU SW-N AND DSNT NE T01830039 51008
Loading
Personal Weather Stations






























Interactive Weather Map
Tropical Storm Tracking
New forecast layout! Learn more

10-Day Weather Forecast

Advertisements
Track Severe Weather on mobile